Gardner, North Dakota
Current Conditions -  °F | °C
As of 3:53 AM on Sunday 26 Oct 2014 (Local Time) from KFAR Reporting Station
Clear Clear  
Wind Chill: 33°   Ceiling: Unl
Heat Index: 39°   Visibility: 10mi
Dew Point: 22°   Wind: 8mph
Humidity: 50%   Direction: 140°SE
Pressure: 29.95"   Gusts: NA
Location:  47.15°N, 96.97°W
Report Text: KFAR 260853Z 14007KT 10SM CLR 04/M06 A2995 RMK AO2 SLP148 T00391056 58012
Loading
Personal Weather Stations






























Interactive Weather Map
Tropical Storm Tracking
New forecast layout! Learn more

10-Day Weather Forecast

Advertisements
Track Severe Weather on mobile